Eagle, Colorado
Current Conditions -  °F | °C
As of 7:50 PM on Sunday 21 Dec 2014 (Local Time) from KEGE Reporting Station
Light Snow Light Snow  
Wind Chill: 24°   Ceiling: 2500
Heat Index: 34°   Visibility: 3mi
Dew Point: 30°   Wind: 15mph
Humidity: 87%   Direction: 270°W
Pressure: 29.8"   Gusts: 20mph
Location:  39.66°N, 106.83°W
Report Text: KEGE 220250Z 27013G17KT 3SM -SN BR OVC025 01/M01 A2980
Loading
Personal Weather Stations






























Interactive Weather Map New forecast layout! Learn more

10-Day Weather Forecast

Advertisements
Track Severe Weather on mobile